Altheimer, AR

4:08 AM CST on February 14, 2016 (GMT -0600)
Grider | | Change Station
CLOSE
Current Station
Airport
Location: Pine Bluff,
Elevation: 207 ft
Nearby Weather Stations

Elev 207 ft 34.17 °N, 91.93 °W | Updated 15 minutes ago

Overcast
Overcast
36 °F
Feels Like 28 °F
N
10
Wind Variable Wind from ENE

Today
High -- | Low -- °F
--% Chance of Precip.
Yesterday
High -- | Low -- °F
Precip. -- in
Pressure 30.21 in
Visibility 10.0 miles
Clouds Overcast 4100 ft
Windchill 28 °F
Dew Point 20 °F
Humidity 52%
Rainfall 0.00 in
Snow Depth Not available.
6:53 AM 5:49 PM
Waxing Crescent, 40% visible
METAR KPBF 140953Z AUTO 07009KT 10SM OVC041 02/M07 A3021 RMK AO2 SLP228 T00221067
Pressure 30.21 in
Visibility 10.0 miles
Clouds Overcast 4100 ft
Windchill 28 °F
Dew Point 20 °F
Humidity 52%
Rainfall 0.00 in
Snow Depth Not available.
6:53 AM 5:49 PM
Waxing Crescent, 40% visible
METAR KPBF 140953Z AUTO 07009KT 10SM OVC041 02/M07 A3021 RMK AO2 SLP228 T00221067

10-Day Weather Forecast

Almanac

Astronomy

Feb. 14, 2016 Rise Set
Actual Time
Civil Twilight
Nautical Twilight
Astronomical Twilight
Moon
Length of Visible Light
Length of Day
Tomorrow will be .
, % of the Moon is Illuminated

Today's Extremes

State Highs State Lows

Community

WunderPhotos

Upload Photos

1,892,761 photos uploaded!

WunderBlog® & News

Nearby

Air Quality

  Air Quality AQ Index Pollutant
Not available.

Snow Depth

Station Depth Elevation

Earthquake Activity

City Distance Mag. Time & Date
Minimum magnitude displayed is 2.5.

Coastal Water Temperatures

Place Temperature

Stations

Nearby Weather Stations

Station Location Temp. Windchill Dew Point Humidity Wind Precip. Elev Updated Type
                   

Watches & Warnings

There are currently no watches in effect.